Dundee, Iowa
Current Conditions -  °F | °C
As of 7:35 PM on Wednesday 26 Nov 2014 (Local Time) from KIIB Reporting Station
Light Snow Light Snow  
Wind Chill: 18°   Ceiling: 1400
Heat Index: 27°   Visibility: 4mi
Dew Point: 27°   Wind: 8mph
Humidity: 100%   Direction: 10°N
Pressure: 30.22"   Gusts: NA
Location:  42.58°N, 91.55°W
Report Text: KIIB 270135Z AUTO 01007KT 4SM -SN SCT009 BKN014 OVC022 M03/M03 A3022 RMK AO2
Loading
Personal Weather Stations






























Interactive Weather Map New forecast layout! Learn more

10-Day Weather Forecast

Advertisements
Track Severe Weather on mobile